sensor_id;sensor_type;location;lat;lon;timestamp;P1;durP1;ratioP1;P2;durP2;ratioP2
42144;SDS011;27813;43.516;11.890;2023-12-20T00:03:37;24.67;;;14.85;;
42144;SDS011;27813;43.516;11.890;2023-12-20T00:07:44;25.90;;;14.18;;
42144;SDS011;27813;43.516;11.890;2023-12-20T00:11:50;22.63;;;13.77;;
42144;SDS011;27813;43.516;11.890;2023-12-20T00:15:54;26.13;;;15.68;;
42144;SDS011;27813;43.516;11.890;2023-12-20T00:24:03;28.80;;;15.85;;
42144;SDS011;27813;43.516;11.890;2023-12-20T00:28:07;68.13;;;27.83;;
42144;SDS011;27813;43.516;11.890;2023-12-20T00:32:11;31.00;;;16.83;;
42144;SDS011;27813;43.516;11.890;2023-12-20T00:36:15;25.83;;;15.13;;
42144;SDS011;27813;43.516;11.890;2023-12-20T00:40:19;30.05;;;16.23;;
42144;SDS011;27813;43.516;11.890;2023-12-20T00:44:24;30.58;;;17.00;;
42144;SDS011;27813;43.516;11.890;2023-12-20T00:48:27;45.45;;;20.90;;
42144;SDS011;27813;43.516;11.890;2023-12-20T00:52:33;24.45;;;13.98;;
42144;SDS011;27813;43.516;11.890;2023-12-20T00:56:36;30.02;;;15.27;;
42144;SDS011;27813;43.516;11.890;2023-12-20T01:00:41;23.45;;;13.63;;
42144;SDS011;27813;43.516;11.890;2023-12-20T01:04:46;23.58;;;13.05;;
42144;SDS011;27813;43.516;11.890;2023-12-20T01:08:50;20.77;;;12.57;;
42144;SDS011;27813;43.516;11.890;2023-12-20T01:12:54;35.00;;;19.50;;
42144;SDS011;27813;43.516;11.890;2023-12-20T01:16:59;21.63;;;13.35;;
42144;SDS011;27813;43.516;11.890;2023-12-20T01:21:03;22.37;;;12.10;;
42144;SDS011;27813;43.516;11.890;2023-12-20T01:25:07;30.27;;;16.43;;
42144;SDS011;27813;43.516;11.890;2023-12-20T01:29:11;33.93;;;14.10;;
42144;SDS011;27813;43.516;11.890;2023-12-20T01:33:16;28.67;;;14.63;;
42144;SDS011;27813;43.516;11.890;2023-12-20T01:37:20;29.20;;;14.53;;
42144;SDS011;27813;43.516;11.890;2023-12-20T01:41:27;26.33;;;14.05;;
42144;SDS011;27813;43.516;11.890;2023-12-20T01:45:31;21.80;;;12.05;;
42144;SDS011;27813;43.516;11.890;2023-12-20T01:49:35;25.90;;;12.32;;
42144;SDS011;27813;43.516;11.890;2023-12-20T01:53:39;22.00;;;12.52;;
42144;SDS011;27813;43.516;11.890;2023-12-20T01:57:43;20.67;;;11.20;;
42144;SDS011;27813;43.516;11.890;2023-12-20T02:01:53;18.58;;;9.93;;
42144;SDS011;27813;43.516;11.890;2023-12-20T02:05:57;14.23;;;8.52;;
42144;SDS011;27813;43.516;11.890;2023-12-20T02:10:01;18.00;;;10.27;;
42144;SDS011;27813;43.516;11.890;2023-12-20T02:14:07;18.75;;;9.85;;
42144;SDS011;27813;43.516;11.890;2023-12-20T02:18:11;21.35;;;11.52;;
42144;SDS011;27813;43.516;11.890;2023-12-20T02:22:18;22.17;;;12.85;;
42144;SDS011;27813;43.516;11.890;2023-12-20T02:26:22;21.70;;;12.95;;
42144;SDS011;27813;43.516;11.890;2023-12-20T02:30:26;24.00;;;12.93;;
42144;SDS011;27813;43.516;11.890;2023-12-20T02:34:31;18.85;;;11.25;;
42144;SDS011;27813;43.516;11.890;2023-12-20T02:38:40;19.05;;;10.95;;
42144;SDS011;27813;43.516;11.890;2023-12-20T02:42:44;21.17;;;10.82;;
42144;SDS011;27813;43.516;11.890;2023-12-20T02:46:49;24.42;;;10.68;;
42144;SDS011;27813;43.516;11.890;2023-12-20T02:50:53;19.60;;;11.27;;
42144;SDS011;27813;43.516;11.890;2023-12-20T02:54:58;22.58;;;11.30;;
42144;SDS011;27813;43.516;11.890;2023-12-20T02:59:02;16.67;;;9.90;;
42144;SDS011;27813;43.516;11.890;2023-12-20T03:03:09;48.05;;;16.35;;
42144;SDS011;27813;43.516;11.890;2023-12-20T03:07:16;68.90;;;20.02;;
42144;SDS011;27813;43.516;11.890;2023-12-20T03:11:26;32.50;;;13.35;;
42144;SDS011;27813;43.516;11.890;2023-12-20T03:15:32;20.60;;;10.60;;
42144;SDS011;27813;43.516;11.890;2023-12-20T03:19:38;15.52;;;8.98;;
42144;SDS011;27813;43.516;11.890;2023-12-20T03:23:43;17.58;;;8.85;;
42144;SDS011;27813;43.516;11.890;2023-12-20T03:27:48;19.67;;;10.50;;
42144;SDS011;27813;43.516;11.890;2023-12-20T03:31:52;16.20;;;8.95;;
42144;SDS011;27813;43.516;11.890;2023-12-20T03:35:57;20.70;;;10.40;;
42144;SDS011;27813;43.516;11.890;2023-12-20T03:44:08;23.73;;;10.77;;
42144;SDS011;27813;43.516;11.890;2023-12-20T03:48:12;19.40;;;10.88;;
42144;SDS011;27813;43.516;11.890;2023-12-20T03:52:19;17.20;;;10.30;;
42144;SDS011;27813;43.516;11.890;2023-12-20T03:56:24;20.35;;;11.23;;
42144;SDS011;27813;43.516;11.890;2023-12-20T04:00:29;20.27;;;9.80;;
42144;SDS011;27813;43.516;11.890;2023-12-20T04:04:34;19.23;;;9.98;;
42144;SDS011;27813;43.516;11.890;2023-12-20T04:08:39;24.90;;;10.75;;
42144;SDS011;27813;43.516;11.890;2023-12-20T04:12:44;17.50;;;9.10;;
42144;SDS011;27813;43.516;11.890;2023-12-20T04:16:48;13.02;;;6.93;;
42144;SDS011;27813;43.516;11.890;2023-12-20T04:20:56;15.23;;;8.82;;
42144;SDS011;27813;43.516;11.890;2023-12-20T04:25:00;14.52;;;8.93;;
42144;SDS011;27813;43.516;11.890;2023-12-20T04:29:05;14.02;;;8.60;;
42144;SDS011;27813;43.516;11.890;2023-12-20T04:33:10;17.75;;;9.90;;
42144;SDS011;27813;43.516;11.890;2023-12-20T04:37:15;22.25;;;11.93;;
42144;SDS011;27813;43.516;11.890;2023-12-20T04:45:24;17.42;;;9.32;;
42144;SDS011;27813;43.516;11.890;2023-12-20T04:49:29;22.90;;;11.05;;
42144;SDS011;27813;43.516;11.890;2023-12-20T04:53:34;18.15;;;10.60;;
42144;SDS011;27813;43.516;11.890;2023-12-20T04:57:38;20.73;;;11.23;;
42144;SDS011;27813;43.516;11.890;2023-12-20T05:01:43;20.98;;;10.95;;
42144;SDS011;27813;43.516;11.890;2023-12-20T05:09:52;20.80;;;10.07;;
42144;SDS011;27813;43.516;11.890;2023-12-20T05:13:57;22.77;;;10.43;;
42144;SDS011;27813;43.516;11.890;2023-12-20T05:18:02;21.70;;;10.93;;
42144;SDS011;27813;43.516;11.890;2023-12-20T05:22:08;21.05;;;11.20;;
42144;SDS011;27813;43.516;11.890;2023-12-20T05:26:13;19.08;;;10.82;;
42144;SDS011;27813;43.516;11.890;2023-12-20T05:30:19;20.35;;;10.48;;
42144;SDS011;27813;43.516;11.890;2023-12-20T05:34:23;19.50;;;10.15;;
42144;SDS011;27813;43.516;11.890;2023-12-20T05:38:28;17.90;;;9.80;;
42144;SDS011;27813;43.516;11.890;2023-12-20T05:42:33;16.55;;;8.82;;
42144;SDS011;27813;43.516;11.890;2023-12-20T05:46:39;16.27;;;9.18;;
42144;SDS011;27813;43.516;11.890;2023-12-20T05:50:43;22.48;;;9.15;;
42144;SDS011;27813;43.516;11.890;2023-12-20T05:54:48;16.75;;;9.00;;
42144;SDS011;27813;43.516;11.890;2023-12-20T05:58:53;18.02;;;9.55;;
42144;SDS011;27813;43.516;11.890;2023-12-20T06:02:57;17.38;;;9.80;;
42144;SDS011;27813;43.516;11.890;2023-12-20T06:07:04;22.33;;;10.27;;
42144;SDS011;27813;43.516;11.890;2023-12-20T06:11:09;25.45;;;10.93;;
42144;SDS011;27813;43.516;11.890;2023-12-20T06:15:14;24.95;;;11.52;;
42144;SDS011;27813;43.516;11.890;2023-12-20T06:19:20;20.33;;;10.85;;
42144;SDS011;27813;43.516;11.890;2023-12-20T06:23:29;18.83;;;10.50;;
42144;SDS011;27813;43.516;11.890;2023-12-20T06:27:34;21.58;;;11.30;;
42144;SDS011;27813;43.516;11.890;2023-12-20T06:31:38;19.42;;;10.18;;
42144;SDS011;27813;43.516;11.890;2023-12-20T06:35:44;21.50;;;11.02;;
42144;SDS011;27813;43.516;11.890;2023-12-20T06:39:49;19.80;;;10.48;;
42144;SDS011;27813;43.516;11.890;2023-12-20T06:43:54;27.33;;;11.27;;
42144;SDS011;27813;43.516;11.890;2023-12-20T06:48:08;21.50;;;10.48;;
42144;SDS011;27813;43.516;11.890;2023-12-20T06:52:53;19.77;;;10.20;;
42144;SDS011;27813;43.516;11.890;2023-12-20T06:56:59;16.10;;;9.70;;
42144;SDS011;27813;43.516;11.890;2023-12-20T07:01:10;26.00;;;13.40;;
42144;SDS011;27813;43.516;11.890;2023-12-20T07:05:17;24.92;;;12.07;;
42144;SDS011;27813;43.516;11.890;2023-12-20T07:09:25;21.45;;;11.57;;
42144;SDS011;27813;43.516;11.890;2023-12-20T07:13:31;22.35;;;11.35;;
42144;SDS011;27813;43.516;11.890;2023-12-20T07:17:35;33.95;;;16.35;;
42144;SDS011;27813;43.516;11.890;2023-12-20T07:25:45;32.75;;;17.20;;
42144;SDS011;27813;43.516;11.890;2023-12-20T07:29:49;23.75;;;13.43;;
42144;SDS011;27813;43.516;11.890;2023-12-20T07:33:54;29.45;;;14.50;;
42144;SDS011;27813;43.516;11.890;2023-12-20T07:37:58;25.83;;;13.85;;
42144;SDS011;27813;43.516;11.890;2023-12-20T07:42:03;32.85;;;13.55;;
42144;SDS011;27813;43.516;11.890;2023-12-20T07:46:08;32.45;;;15.88;;
42144;SDS011;27813;43.516;11.890;2023-12-20T07:54:20;17.23;;;9.80;;
42144;SDS011;27813;43.516;11.890;2023-12-20T07:58:25;21.58;;;11.57;;
42144;SDS011;27813;43.516;11.890;2023-12-20T08:02:47;21.02;;;11.85;;
42144;SDS011;27813;43.516;11.890;2023-12-20T08:06:57;26.42;;;11.50;;
42144;SDS011;27813;43.516;11.890;2023-12-20T08:11:03;27.70;;;15.13;;
42144;SDS011;27813;43.516;11.890;2023-12-20T08:15:08;21.55;;;11.85;;
42144;SDS011;27813;43.516;11.890;2023-12-20T08:19:13;163.80;;;48.05;;
42144;SDS011;27813;43.516;11.890;2023-12-20T08:23:18;52.55;;;21.73;;
42144;SDS011;27813;43.516;11.890;2023-12-20T08:27:27;34.17;;;16.65;;
42144;SDS011;27813;43.516;11.890;2023-12-20T08:31:31;32.22;;;16.75;;
42144;SDS011;27813;43.516;11.890;2023-12-20T08:35:41;39.60;;;18.35;;
42144;SDS011;27813;43.516;11.890;2023-12-20T08:39:46;37.20;;;18.67;;
42144;SDS011;27813;43.516;11.890;2023-12-20T08:43:52;29.00;;;16.40;;
42144;SDS011;27813;43.516;11.890;2023-12-20T08:47:59;33.33;;;17.13;;
42144;SDS011;27813;43.516;11.890;2023-12-20T08:52:08;28.48;;;15.50;;
42144;SDS011;27813;43.516;11.890;2023-12-20T08:56:14;28.50;;;16.45;;
42144;SDS011;27813;43.516;11.890;2023-12-20T09:00:21;32.97;;;16.92;;
42144;SDS011;27813;43.516;11.890;2023-12-20T09:04:29;26.67;;;16.17;;
42144;SDS011;27813;43.516;11.890;2023-12-20T09:08:35;30.73;;;17.40;;
42144;SDS011;27813;43.516;11.890;2023-12-20T09:16:46;31.40;;;14.98;;
42144;SDS011;27813;43.516;11.890;2023-12-20T09:20:51;30.75;;;14.80;;
42144;SDS011;27813;43.516;11.890;2023-12-20T09:24:56;26.23;;;15.27;;
42144;SDS011;27813;43.516;11.890;2023-12-20T09:29:01;58.15;;;31.05;;
42144;SDS011;27813;43.516;11.890;2023-12-20T09:33:06;40.78;;;22.02;;
42144;SDS011;27813;43.516;11.890;2023-12-20T09:37:13;39.35;;;23.33;;
42144;SDS011;27813;43.516;11.890;2023-12-20T09:41:18;53.22;;;26.08;;
42144;SDS011;27813;43.516;11.890;2023-12-20T09:45:25;47.78;;;23.42;;
42144;SDS011;27813;43.516;11.890;2023-12-20T09:49:31;40.28;;;22.15;;
42144;SDS011;27813;43.516;11.890;2023-12-20T09:53:37;39.50;;;23.90;;
42144;SDS011;27813;43.516;11.890;2023-12-20T09:57:44;62.78;;;31.30;;
42144;SDS011;27813;43.516;11.890;2023-12-20T10:01:49;40.83;;;22.73;;
42144;SDS011;27813;43.516;11.890;2023-12-20T10:05:59;39.28;;;22.80;;
42144;SDS011;27813;43.516;11.890;2023-12-20T10:10:05;40.40;;;24.05;;
42144;SDS011;27813;43.516;11.890;2023-12-20T10:14:12;47.53;;;26.40;;
42144;SDS011;27813;43.516;11.890;2023-12-20T10:18:18;45.85;;;24.92;;
42144;SDS011;27813;43.516;11.890;2023-12-20T10:22:24;59.88;;;31.23;;
42144;SDS011;27813;43.516;11.890;2023-12-20T10:26:29;44.20;;;25.13;;
42144;SDS011;27813;43.516;11.890;2023-12-20T10:34:38;44.38;;;28.98;;
42144;SDS011;27813;43.516;11.890;2023-12-20T10:38:42;47.67;;;30.23;;
42144;SDS011;27813;43.516;11.890;2023-12-20T10:42:49;42.03;;;25.52;;
42144;SDS011;27813;43.516;11.890;2023-12-20T10:46:55;37.90;;;25.70;;
42144;SDS011;27813;43.516;11.890;2023-12-20T10:51:02;35.60;;;23.48;;
42144;SDS011;27813;43.516;11.890;2023-12-20T10:55:09;34.28;;;24.50;;
42144;SDS011;27813;43.516;11.890;2023-12-20T10:59:15;43.50;;;29.45;;
42144;SDS011;27813;43.516;11.890;2023-12-20T11:03:23;45.95;;;30.50;;
42144;SDS011;27813;43.516;11.890;2023-12-20T11:07:54;46.50;;;30.52;;
42144;SDS011;27813;43.516;11.890;2023-12-20T11:12:16;45.47;;;29.30;;
42144;SDS011;27813;43.516;11.890;2023-12-20T11:16:38;55.63;;;33.75;;
42144;SDS011;27813;43.516;11.890;2023-12-20T11:21:06;51.00;;;33.88;;
42144;SDS011;27813;43.516;11.890;2023-12-20T11:25:13;52.10;;;33.53;;
42144;SDS011;27813;43.516;11.890;2023-12-20T11:33:37;46.72;;;32.33;;
42144;SDS011;27813;43.516;11.890;2023-12-20T11:37:43;48.30;;;31.80;;
42144;SDS011;27813;43.516;11.890;2023-12-20T11:41:56;44.45;;;30.85;;
42144;SDS011;27813;43.516;11.890;2023-12-20T11:46:25;44.20;;;30.15;;
42144;SDS011;27813;43.516;11.890;2023-12-20T11:50:31;49.25;;;31.05;;
42144;SDS011;27813;43.516;11.890;2023-12-20T11:54:40;46.50;;;33.13;;
42144;SDS011;27813;43.516;11.890;2023-12-20T11:58:47;51.53;;;33.97;;
42144;SDS011;27813;43.516;11.890;2023-12-20T12:03:25;44.88;;;31.23;;
42144;SDS011;27813;43.516;11.890;2023-12-20T12:07:54;48.92;;;33.05;;
42144;SDS011;27813;43.516;11.890;2023-12-20T12:12:01;43.25;;;31.33;;
42144;SDS011;27813;43.516;11.890;2023-12-20T12:16:06;44.65;;;32.08;;
42144;SDS011;27813;43.516;11.890;2023-12-20T12:20:59;38.42;;;24.48;;
42144;SDS011;27813;43.516;11.890;2023-12-20T12:25:26;33.60;;;23.02;;
42144;SDS011;27813;43.516;11.890;2023-12-20T12:29:35;120.10;;;54.13;;
42144;SDS011;27813;43.516;11.890;2023-12-20T12:33:41;43.40;;;28.35;;
42144;SDS011;27813;43.516;11.890;2023-12-20T12:37:50;44.58;;;27.73;;
42144;SDS011;27813;43.516;11.890;2023-12-20T12:42:02;33.58;;;23.50;;
42144;SDS011;27813;43.516;11.890;2023-12-20T12:46:10;36.05;;;21.00;;
42144;SDS011;27813;43.516;11.890;2023-12-20T12:50:15;28.45;;;20.35;;
42144;SDS011;27813;43.516;11.890;2023-12-20T12:54:21;30.75;;;20.52;;
42144;SDS011;27813;43.516;11.890;2023-12-20T12:58:29;33.70;;;21.38;;
42144;SDS011;27813;43.516;11.890;2023-12-20T13:02:34;33.72;;;22.02;;
42144;SDS011;27813;43.516;11.890;2023-12-20T13:06:43;29.35;;;20.45;;
42144;SDS011;27813;43.516;11.890;2023-12-20T13:10:48;33.72;;;23.42;;
42144;SDS011;27813;43.516;11.890;2023-12-20T13:14:55;30.08;;;19.88;;
42144;SDS011;27813;43.516;11.890;2023-12-20T13:18:59;27.42;;;19.98;;
42144;SDS011;27813;43.516;11.890;2023-12-20T13:23:05;30.88;;;21.65;;
42144;SDS011;27813;43.516;11.890;2023-12-20T13:27:10;30.63;;;21.17;;
42144;SDS011;27813;43.516;11.890;2023-12-20T13:31:14;31.83;;;21.80;;
42144;SDS011;27813;43.516;11.890;2023-12-20T13:35:24;32.50;;;22.77;;
42144;SDS011;27813;43.516;11.890;2023-12-20T13:39:29;43.92;;;27.30;;
42144;SDS011;27813;43.516;11.890;2023-12-20T13:43:36;43.40;;;27.10;;
42144;SDS011;27813;43.516;11.890;2023-12-20T13:47:42;43.80;;;27.58;;
42144;SDS011;27813;43.516;11.890;2023-12-20T13:51:47;40.35;;;24.77;;
42144;SDS011;27813;43.516;11.890;2023-12-20T13:55:52;37.78;;;24.23;;
42144;SDS011;27813;43.516;11.890;2023-12-20T13:59:57;47.22;;;25.88;;
42144;SDS011;27813;43.516;11.890;2023-12-20T14:04:02;35.53;;;24.25;;
42144;SDS011;27813;43.516;11.890;2023-12-20T14:12:12;40.80;;;23.13;;
42144;SDS011;27813;43.516;11.890;2023-12-20T14:16:17;42.83;;;23.67;;
42144;SDS011;27813;43.516;11.890;2023-12-20T14:20:22;43.80;;;25.75;;
42144;SDS011;27813;43.516;11.890;2023-12-20T14:24:28;38.92;;;24.42;;
42144;SDS011;27813;43.516;11.890;2023-12-20T14:28:33;38.97;;;23.48;;
42144;SDS011;27813;43.516;11.890;2023-12-20T14:32:38;40.10;;;23.67;;
42144;SDS011;27813;43.516;11.890;2023-12-20T14:36:43;37.78;;;25.30;;
42144;SDS011;27813;43.516;11.890;2023-12-20T14:40:53;46.00;;;26.80;;
42144;SDS011;27813;43.516;11.890;2023-12-20T14:44:59;40.60;;;26.63;;
42144;SDS011;27813;43.516;11.890;2023-12-20T14:49:05;42.55;;;25.23;;
42144;SDS011;27813;43.516;11.890;2023-12-20T14:53:12;44.15;;;27.15;;
42144;SDS011;27813;43.516;11.890;2023-12-20T14:57:28;42.17;;;26.00;;
42144;SDS011;27813;43.516;11.890;2023-12-20T15:01:33;42.55;;;25.65;;
42144;SDS011;27813;43.516;11.890;2023-12-20T15:05:41;46.15;;;26.85;;
42144;SDS011;27813;43.516;11.890;2023-12-20T15:09:47;44.13;;;27.17;;
42144;SDS011;27813;43.516;11.890;2023-12-20T15:13:53;44.05;;;26.50;;
42144;SDS011;27813;43.516;11.890;2023-12-20T15:18:02;44.88;;;27.63;;
42144;SDS011;27813;43.516;11.890;2023-12-20T15:22:07;46.72;;;27.73;;
42144;SDS011;27813;43.516;11.890;2023-12-20T15:26:12;46.38;;;29.42;;
42144;SDS011;27813;43.516;11.890;2023-12-20T15:30:20;59.47;;;32.50;;
42144;SDS011;27813;43.516;11.890;2023-12-20T15:34:29;64.30;;;34.92;;
42144;SDS011;27813;43.516;11.890;2023-12-20T15:38:35;55.72;;;31.55;;
42144;SDS011;27813;43.516;11.890;2023-12-20T15:42:40;63.75;;;35.33;;
42144;SDS011;27813;43.516;11.890;2023-12-20T15:46:46;82.18;;;42.20;;
42144;SDS011;27813;43.516;11.890;2023-12-20T15:50:53;80.72;;;40.67;;
42144;SDS011;27813;43.516;11.890;2023-12-20T15:54:57;66.85;;;37.95;;
42144;SDS011;27813;43.516;11.890;2023-12-20T15:59:04;56.90;;;32.78;;
42144;SDS011;27813;43.516;11.890;2023-12-20T16:03:09;52.20;;;31.55;;
42144;SDS011;27813;43.516;11.890;2023-12-20T16:07:28;56.53;;;32.58;;
42144;SDS011;27813;43.516;11.890;2023-12-20T16:11:33;52.13;;;28.80;;
42144;SDS011;27813;43.516;11.890;2023-12-20T16:15:38;51.90;;;29.80;;
42144;SDS011;27813;43.516;11.890;2023-12-20T16:19:43;55.83;;;31.20;;
42144;SDS011;27813;43.516;11.890;2023-12-20T16:23:48;43.55;;;27.02;;
42144;SDS011;27813;43.516;11.890;2023-12-20T16:27:54;53.78;;;30.63;;
42144;SDS011;27813;43.516;11.890;2023-12-20T16:40:09;67.47;;;36.97;;
42144;SDS011;27813;43.516;11.890;2023-12-20T16:44:15;60.00;;;35.05;;
42144;SDS011;27813;43.516;11.890;2023-12-20T16:48:21;65.13;;;37.67;;
42144;SDS011;27813;43.516;11.890;2023-12-20T16:52:26;59.70;;;32.95;;
42144;SDS011;27813;43.516;11.890;2023-12-20T17:00:35;41.67;;;22.92;;
42144;SDS011;27813;43.516;11.890;2023-12-20T17:04:40;45.50;;;27.35;;
42144;SDS011;27813;43.516;11.890;2023-12-20T17:08:46;53.15;;;31.65;;
42144;SDS011;27813;43.516;11.890;2023-12-20T17:12:54;48.53;;;28.20;;
42144;SDS011;27813;43.516;11.890;2023-12-20T17:16:59;53.33;;;31.63;;
42144;SDS011;27813;43.516;11.890;2023-12-20T17:21:07;55.13;;;30.60;;
42144;SDS011;27813;43.516;11.890;2023-12-20T17:25:14;63.58;;;38.38;;
42144;SDS011;27813;43.516;11.890;2023-12-20T17:29:21;60.28;;;37.20;;
42144;SDS011;27813;43.516;11.890;2023-12-20T17:33:27;61.03;;;35.97;;
42144;SDS011;27813;43.516;11.890;2023-12-20T17:37:32;64.80;;;36.70;;
42144;SDS011;27813;43.516;11.890;2023-12-20T17:45:42;60.90;;;34.85;;
42144;SDS011;27813;43.516;11.890;2023-12-20T17:49:46;56.88;;;33.08;;
42144;SDS011;27813;43.516;11.890;2023-12-20T17:57:55;51.50;;;31.05;;
42144;SDS011;27813;43.516;11.890;2023-12-20T18:02:03;47.22;;;29.30;;
42144;SDS011;27813;43.516;11.890;2023-12-20T18:06:08;41.88;;;26.00;;
42144;SDS011;27813;43.516;11.890;2023-12-20T18:10:14;40.40;;;23.10;;
42144;SDS011;27813;43.516;11.890;2023-12-20T18:14:21;31.70;;;21.55;;
42144;SDS011;27813;43.516;11.890;2023-12-20T18:18:28;35.15;;;19.67;;
42144;SDS011;27813;43.516;11.890;2023-12-20T18:22:34;39.75;;;22.85;;
42144;SDS011;27813;43.516;11.890;2023-12-20T18:26:39;38.83;;;25.02;;
42144;SDS011;27813;43.516;11.890;2023-12-20T18:34:50;36.80;;;23.52;;
42144;SDS011;27813;43.516;11.890;2023-12-20T18:38:55;42.85;;;23.10;;
42144;SDS011;27813;43.516;11.890;2023-12-20T18:43:01;64.90;;;33.30;;
42144;SDS011;27813;43.516;11.890;2023-12-20T18:47:07;104.93;;;50.10;;
42144;SDS011;27813;43.516;11.890;2023-12-20T18:51:13;73.68;;;43.85;;
42144;SDS011;27813;43.516;11.890;2023-12-20T18:55:19;66.95;;;37.72;;
42144;SDS011;27813;43.516;11.890;2023-12-20T18:59:25;55.85;;;33.92;;
42144;SDS011;27813;43.516;11.890;2023-12-20T19:03:33;59.50;;;35.25;;
42144;SDS011;27813;43.516;11.890;2023-12-20T19:07:39;73.13;;;36.05;;
42144;SDS011;27813;43.516;11.890;2023-12-20T19:11:48;65.15;;;36.33;;
42144;SDS011;27813;43.516;11.890;2023-12-20T19:15:59;55.70;;;34.63;;
42144;SDS011;27813;43.516;11.890;2023-12-20T19:20:13;191.88;;;70.25;;
42144;SDS011;27813;43.516;11.890;2023-12-20T19:24:22;77.28;;;41.28;;
42144;SDS011;27813;43.516;11.890;2023-12-20T19:28:28;61.33;;;35.35;;
42144;SDS011;27813;43.516;11.890;2023-12-20T19:32:40;84.88;;;42.15;;
42144;SDS011;27813;43.516;11.890;2023-12-20T19:36:50;60.17;;;34.08;;
42144;SDS011;27813;43.516;11.890;2023-12-20T19:40:56;55.58;;;29.98;;
42144;SDS011;27813;43.516;11.890;2023-12-20T19:45:08;64.22;;;34.80;;
42144;SDS011;27813;43.516;11.890;2023-12-20T19:49:23;78.57;;;42.03;;
42144;SDS011;27813;43.516;11.890;2023-12-20T19:53:32;93.80;;;48.88;;
42144;SDS011;27813;43.516;11.890;2023-12-20T19:57:47;86.28;;;42.92;;
42144;SDS011;27813;43.516;11.890;2023-12-20T20:01:56;81.93;;;44.00;;
42144;SDS011;27813;43.516;11.890;2023-12-20T20:06:04;77.00;;;41.28;;
42144;SDS011;27813;43.516;11.890;2023-12-20T20:10:09;93.22;;;52.60;;
42144;SDS011;27813;43.516;11.890;2023-12-20T20:14:15;97.05;;;46.55;;
42144;SDS011;27813;43.516;11.890;2023-12-20T20:18:21;82.05;;;45.08;;
42144;SDS011;27813;43.516;11.890;2023-12-20T20:22:33;71.10;;;42.40;;
42144;SDS011;27813;43.516;11.890;2023-12-20T20:26:39;79.35;;;42.97;;
42144;SDS011;27813;43.516;11.890;2023-12-20T20:30:45;86.53;;;47.60;;
42144;SDS011;27813;43.516;11.890;2023-12-20T20:35:02;76.80;;;43.38;;
42144;SDS011;27813;43.516;11.890;2023-12-20T20:39:10;73.55;;;43.08;;
42144;SDS011;27813;43.516;11.890;2023-12-20T20:43:17;90.00;;;47.13;;
42144;SDS011;27813;43.516;11.890;2023-12-20T20:47:28;82.00;;;43.63;;
42144;SDS011;27813;43.516;11.890;2023-12-20T20:51:38;74.57;;;41.47;;
42144;SDS011;27813;43.516;11.890;2023-12-20T20:55:45;76.88;;;42.08;;
42144;SDS011;27813;43.516;11.890;2023-12-20T20:59:51;82.80;;;42.92;;
42144;SDS011;27813;43.516;11.890;2023-12-20T21:03:55;76.30;;;40.90;;
42144;SDS011;27813;43.516;11.890;2023-12-20T21:08:02;71.63;;;40.63;;
42144;SDS011;27813;43.516;11.890;2023-12-20T21:20:18;54.75;;;32.80;;
42144;SDS011;27813;43.516;11.890;2023-12-20T21:24:25;60.50;;;33.10;;
42144;SDS011;27813;43.516;11.890;2023-12-20T21:28:32;62.15;;;35.40;;
42144;SDS011;27813;43.516;11.890;2023-12-20T21:32:38;66.78;;;34.45;;
42144;SDS011;27813;43.516;11.890;2023-12-20T21:36:47;63.67;;;33.70;;
42144;SDS011;27813;43.516;11.890;2023-12-20T21:40:59;64.03;;;34.97;;
42144;SDS011;27813;43.516;11.890;2023-12-20T21:45:07;73.93;;;38.72;;
42144;SDS011;27813;43.516;11.890;2023-12-20T21:49:16;78.78;;;43.75;;
42144;SDS011;27813;43.516;11.890;2023-12-20T21:53:24;62.42;;;34.53;;
42144;SDS011;27813;43.516;11.890;2023-12-20T21:57:30;48.45;;;30.80;;
42144;SDS011;27813;43.516;11.890;2023-12-20T22:01:35;73.60;;;35.53;;
42144;SDS011;27813;43.516;11.890;2023-12-20T22:05:48;58.95;;;33.65;;
42144;SDS011;27813;43.516;11.890;2023-12-20T22:09:54;61.42;;;33.53;;
42144;SDS011;27813;43.516;11.890;2023-12-20T22:13:59;54.45;;;30.73;;
42144;SDS011;27813;43.516;11.890;2023-12-20T22:18:05;47.17;;;30.15;;
42144;SDS011;27813;43.516;11.890;2023-12-20T22:22:17;59.65;;;32.78;;
42144;SDS011;27813;43.516;11.890;2023-12-20T22:26:25;62.67;;;34.00;;
42144;SDS011;27813;43.516;11.890;2023-12-20T22:30:31;60.88;;;34.17;;
42144;SDS011;27813;43.516;11.890;2023-12-20T22:34:41;57.47;;;31.95;;
42144;SDS011;27813;43.516;11.890;2023-12-20T22:38:48;54.22;;;30.25;;
42144;SDS011;27813;43.516;11.890;2023-12-20T22:42:53;53.50;;;31.77;;
42144;SDS011;27813;43.516;11.890;2023-12-20T22:46:59;52.83;;;30.70;;
42144;SDS011;27813;43.516;11.890;2023-12-20T22:51:10;52.92;;;30.05;;
42144;SDS011;27813;43.516;11.890;2023-12-20T22:55:16;62.17;;;34.42;;
42144;SDS011;27813;43.516;11.890;2023-12-20T22:59:23;51.78;;;30.02;;
42144;SDS011;27813;43.516;11.890;2023-12-20T23:03:29;49.15;;;26.63;;
42144;SDS011;27813;43.516;11.890;2023-12-20T23:07:34;75.32;;;46.35;;
42144;SDS011;27813;43.516;11.890;2023-12-20T23:15:43;45.15;;;26.58;;
42144;SDS011;27813;43.516;11.890;2023-12-20T23:19:48;43.60;;;25.42;;
42144;SDS011;27813;43.516;11.890;2023-12-20T23:23:53;41.33;;;24.02;;
42144;SDS011;27813;43.516;11.890;2023-12-20T23:28:00;48.85;;;27.48;;
42144;SDS011;27813;43.516;11.890;2023-12-20T23:32:05;67.97;;;36.65;;
42144;SDS011;27813;43.516;11.890;2023-12-20T23:36:15;54.35;;;29.88;;
42144;SDS011;27813;43.516;11.890;2023-12-20T23:40:20;52.50;;;28.85;;
42144;SDS011;27813;43.516;11.890;2023-12-20T23:44:25;44.42;;;23.27;;
42144;SDS011;27813;43.516;11.890;2023-12-20T23:48:30;28.33;;;17.48;;
42144;SDS011;27813;43.516;11.890;2023-12-20T23:52:38;66.07;;;37.95;;
42144;SDS011;27813;43.516;11.890;2023-12-20T23:56:42;26.15;;;15.93;;
